Dickert, Alabama
Current Conditions -  °F | °C
As of 12:55 PM on Tuesday 27 Jan 2015 (Local Time) from KLGC Reporting Station
Broken Clouds Broken Clouds  
Wind Chill: 56°   Ceiling: 5000
Heat Index: 56°   Visibility: 10mi
Dew Point: 33°   Wind: 12mph
Humidity: 41%   Direction: 340°NNW
Pressure: 29.96"   Gusts: 28mph
Location:  33.1661°N, 85.5111°W
Report Text: KLGC 271855Z AUTO 34010G24KT 10SM BKN050 13/00 A2996 RMK AO2 T01330004
Loading
Personal Weather Stations






























Interactive Weather Map New forecast layout! Learn more

10-Day Weather Forecast

Advertisements
Track Severe Weather on mobile